createdAt,value
2022-08-23T00:02:25.418Z,2.07
2022-08-23T00:05:03.433Z,2.23
2022-08-23T00:07:38.406Z,2.30
2022-08-23T00:10:07.045Z,2.17
2022-08-23T00:12:33.851Z,2.17
2022-08-23T00:15:00.976Z,2.40
2022-08-23T00:17:33.379Z,2.30
2022-08-23T00:20:06.889Z,2.23
2022-08-23T00:22:34.073Z,2.50
2022-08-23T00:25:01.306Z,2.27
2022-08-23T00:27:28.823Z,2.30
2022-08-23T00:29:57.543Z,2.53
2022-08-23T00:32:28.155Z,2.70
2022-08-23T00:34:55.808Z,2.50
2022-08-23T00:37:23.568Z,2.63
2022-08-23T00:39:50.784Z,1.90
2022-08-23T00:42:41.967Z,2.23
2022-08-23T00:45:29.838Z,2.60
2022-08-23T00:47:58.091Z,2.40
2022-08-23T00:50:32.249Z,2.60
2022-08-23T00:53:16.442Z,2.40
2022-08-23T00:55:46.251Z,1.97
2022-08-23T00:58:16.627Z,2.20
2022-08-23T01:00:43.693Z,2.17
2022-08-23T01:03:12.606Z,2.27
2022-08-23T01:06:09.869Z,2.00
2022-08-23T01:08:38.502Z,1.97
2022-08-23T01:11:20.386Z,1.93
2022-08-23T01:13:57.261Z,1.90
2022-08-23T01:16:38.266Z,2.03
2022-08-23T01:19:11.858Z,1.97
2022-08-23T01:21:49.320Z,2.40
2022-08-23T01:24:37.289Z,2.40
2022-08-23T01:27:07.686Z,2.53
2022-08-23T01:29:34.474Z,2.30
2022-08-23T01:32:01.311Z,2.30
2022-08-23T01:34:29.699Z,2.20
2022-08-23T01:37:01.704Z,2.70
2022-08-23T01:39:28.563Z,2.60
2022-08-23T01:41:55.361Z,2.97
2022-08-23T01:44:22.251Z,2.60
2022-08-23T01:46:57.855Z,2.23
2022-08-23T01:49:25.100Z,2.00
2022-08-23T01:51:51.920Z,2.60
2022-08-23T01:54:18.739Z,2.20
2022-08-23T01:56:45.823Z,2.50
2022-08-23T01:59:13.707Z,2.10
2022-08-23T02:01:40.616Z,2.23
2022-08-23T02:04:07.579Z,1.77
2022-08-23T02:06:34.584Z,1.53
2022-08-23T02:09:01.536Z,1.33
2022-08-23T02:11:36.454Z,1.50
2022-08-23T02:14:08.256Z,1.60
2022-08-23T02:16:42.160Z,1.40
2022-08-23T02:19:20.620Z,1.40
2022-08-23T02:21:48.112Z,1.23
2022-08-23T02:24:19.045Z,1.30
2022-08-23T02:26:48.519Z,1.17
2022-08-23T02:29:24.691Z,1.40
2022-08-23T02:31:51.633Z,1.10
2022-08-23T02:34:19.277Z,1.50
2022-08-23T02:36:47.805Z,1.23
2022-08-23T02:39:16.005Z,0.90
2022-08-23T02:41:44.609Z,1.20
2022-08-23T02:44:12.120Z,1.10
2022-08-23T02:46:40.089Z,0.97
2022-08-23T02:49:07.292Z,0.83
2022-08-23T02:51:34.570Z,0.70
2022-08-23T02:54:01.784Z,0.40
2022-08-23T02:56:28.689Z,0.53
2022-08-23T02:58:55.528Z,0.70
2022-08-23T03:01:28.932Z,0.60
2022-08-23T03:03:56.697Z,0.90
2022-08-23T03:06:25.324Z,0.33
2022-08-23T03:08:54.301Z,0.60
2022-08-23T03:11:22.505Z,0.60
2022-08-23T03:13:50.721Z,0.60
2022-08-23T03:16:18.655Z,0.60
2022-08-23T03:18:46.425Z,0.67
2022-08-23T03:21:13.375Z,0.80
2022-08-23T03:23:41.382Z,0.70
2022-08-23T03:26:11.516Z,0.80
2022-08-23T03:28:40.414Z,0.80
2022-08-23T03:31:08.082Z,1.00
2022-08-23T03:33:35.095Z,1.20
2022-08-23T03:36:05.013Z,1.00
2022-08-23T03:38:32.145Z,1.00
2022-08-23T03:41:00.530Z,0.80
2022-08-23T03:43:27.659Z,0.93
2022-08-23T03:45:54.545Z,0.67
2022-08-23T03:48:21.823Z,0.83
2022-08-23T03:50:48.643Z,0.80
2022-08-23T03:53:15.535Z,0.70
2022-08-23T03:55:44.206Z,1.20
2022-08-23T03:58:11.715Z,0.80
2022-08-23T04:00:39.109Z,0.97
2022-08-23T04:03:06.351Z,0.70
2022-08-23T04:05:33.172Z,0.80
2022-08-23T04:08:01.646Z,0.93
2022-08-23T04:10:28.747Z,0.83
2022-08-23T04:12:55.538Z,0.70
2022-08-23T04:15:23.096Z,1.00
2022-08-23T04:17:49.887Z,0.93
2022-08-23T04:20:17.732Z,1.10
2022-08-23T04:22:45.918Z,0.93
2022-08-23T04:25:33.208Z,1.20
2022-08-23T04:28:00.655Z,1.70
2022-08-23T04:30:27.859Z,0.80
2022-08-23T04:32:54.695Z,1.10
2022-08-23T04:35:22.473Z,0.90
2022-08-23T04:37:49.368Z,1.20
2022-08-23T04:40:35.427Z,1.27
2022-08-23T04:43:02.552Z,1.10
2022-08-23T04:45:29.644Z,1.17
2022-08-23T04:47:56.753Z,1.23
2022-08-23T04:50:24.023Z,1.27
2022-08-23T04:52:50.959Z,0.97
2022-08-23T04:55:17.794Z,1.07
2022-08-23T04:57:44.807Z,1.43
2022-08-23T05:00:14.130Z,1.00
2022-08-23T05:02:40.931Z,1.03
2022-08-23T05:05:09.443Z,1.50
2022-08-23T05:07:42.309Z,1.13
2022-08-23T05:10:13.086Z,1.80
2022-08-23T05:12:40.768Z,1.90
2022-08-23T05:15:09.612Z,1.80
2022-08-23T05:17:37.768Z,2.30
2022-08-23T05:20:06.946Z,2.00
2022-08-23T05:22:38.546Z,1.67
2022-08-23T05:25:06.058Z,3.07
2022-08-23T05:27:33.446Z,2.60
2022-08-23T05:30:00.632Z,2.60
2022-08-23T05:32:31.512Z,3.13
2022-08-23T05:35:00.151Z,3.27
2022-08-23T05:37:27.002Z,3.13
2022-08-23T05:39:53.781Z,3.10
2022-08-23T05:42:20.625Z,3.00
2022-08-23T05:44:47.623Z,3.27
2022-08-23T05:47:17.119Z,3.10
2022-08-23T05:49:44.506Z,4.13
2022-08-23T05:52:13.239Z,3.67
2022-08-23T05:54:40.456Z,3.70
2022-08-23T05:57:07.736Z,4.90
2022-08-23T05:59:34.783Z,5.00
2022-08-23T06:02:02.033Z,4.73
2022-08-23T06:04:28.919Z,4.33
2022-08-23T06:06:58.756Z,5.10
2022-08-23T06:09:26.304Z,5.33
2022-08-23T06:11:53.338Z,4.83
2022-08-23T06:14:20.453Z,3.97
2022-08-23T06:16:52.555Z,4.17
2022-08-23T06:19:22.712Z,4.27
2022-08-23T06:21:51.334Z,5.10
2022-08-23T06:24:18.914Z,4.70
2022-08-23T06:26:47.341Z,5.27
2022-08-23T06:29:17.738Z,4.73
2022-08-23T06:31:48.767Z,4.60
2022-08-23T06:34:21.810Z,4.50
2022-08-23T06:36:52.424Z,4.23
2022-08-23T06:39:21.548Z,3.70
2022-08-23T06:41:49.006Z,3.83
2022-08-23T06:44:17.260Z,4.50
2022-08-23T06:46:44.539Z,4.70
2022-08-23T06:49:11.605Z,4.57
2022-08-23T06:51:44.019Z,4.10
2022-08-23T06:54:14.665Z,4.60
2022-08-23T06:56:43.548Z,4.67
2022-08-23T06:59:10.515Z,5.23
2022-08-23T07:01:46.763Z,5.40
2022-08-23T07:04:17.188Z,5.20
2022-08-23T07:06:44.627Z,5.30
2022-08-23T07:09:12.270Z,4.70
2022-08-23T07:11:39.454Z,4.67
2022-08-23T07:14:10.998Z,4.30
2022-08-23T07:16:42.083Z,4.07
2022-08-23T07:19:09.208Z,4.13
2022-08-23T07:21:37.104Z,3.73
2022-08-23T07:24:04.741Z,4.07
2022-08-23T07:26:43.560Z,4.00
2022-08-23T07:29:17.743Z,3.03
2022-08-23T07:31:56.806Z,2.80
2022-08-23T07:34:33.957Z,2.70
2022-08-23T07:37:02.462Z,2.70
2022-08-23T07:39:31.732Z,2.30
2022-08-23T07:42:00.755Z,2.60
2022-08-23T07:44:28.189Z,2.17
2022-08-23T07:46:55.162Z,2.40
2022-08-23T07:49:29.293Z,2.60
2022-08-23T07:52:03.564Z,2.30
2022-08-23T07:54:48.351Z,2.60
2022-08-23T07:57:27.573Z,2.30
2022-08-23T08:00:02.440Z,2.17
2022-08-23T08:02:37.989Z,1.90
2022-08-23T08:05:11.142Z,1.90
2022-08-23T08:07:38.938Z,1.80
2022-08-23T08:10:06.844Z,1.67
2022-08-23T08:12:34.287Z,1.80
2022-08-23T08:15:01.828Z,1.30
2022-08-23T08:17:28.672Z,1.40
2022-08-23T08:20:00.886Z,1.20
2022-08-23T08:22:39.391Z,1.17
2022-08-23T08:25:22.655Z,1.10
2022-08-23T08:28:01.659Z,1.27
2022-08-23T08:30:48.929Z,0.97
2022-08-23T08:33:34.353Z,1.20
2022-08-23T08:36:34.077Z,1.53
2022-08-23T08:39:19.140Z,1.10
2022-08-23T08:42:31.315Z,1.10
2022-08-23T08:45:32.887Z,1.03
2022-08-23T08:48:23.585Z,1.20
2022-08-23T08:51:07.590Z,1.10
2022-08-23T08:53:43.758Z,1.20
2022-08-23T08:56:21.122Z,1.00
2022-08-23T08:58:59.617Z,1.10
2022-08-23T09:01:28.333Z,1.17
2022-08-23T09:03:56.741Z,1.00
2022-08-23T09:06:47.741Z,1.53
2022-08-23T09:09:53.035Z,1.30
2022-08-23T09:12:55.171Z,1.10
2022-08-23T09:15:25.283Z,1.40
2022-08-23T09:18:01.401Z,1.00
2022-08-23T09:20:33.244Z,1.30
2022-08-23T09:23:26.001Z,1.20
2022-08-23T09:26:03.440Z,1.20
2022-08-23T09:28:34.548Z,1.30
2022-08-23T09:31:01.609Z,1.20
2022-08-23T09:33:51.300Z,1.00
2022-08-23T09:36:26.994Z,1.77
2022-08-23T09:39:01.111Z,1.63
2022-08-23T09:41:41.466Z,1.40
2022-08-23T09:44:44.157Z,1.20
2022-08-23T09:47:25.634Z,1.23
2022-08-23T09:50:17.391Z,1.00
2022-08-23T09:52:47.821Z,1.40
2022-08-23T09:55:42.724Z,1.23
2022-08-23T09:58:24.342Z,1.23
2022-08-23T10:01:22.548Z,0.93
2022-08-23T10:04:11.711Z,1.30
2022-08-23T10:06:39.465Z,1.47
2022-08-23T10:09:08.466Z,1.20
2022-08-23T10:11:46.297Z,1.00
2022-08-23T10:14:17.763Z,0.83
2022-08-23T10:17:02.883Z,1.23
2022-08-23T10:19:47.887Z,1.30
2022-08-23T10:22:26.880Z,1.40
2022-08-23T10:25:23.421Z,1.30
2022-08-23T10:28:40.143Z,1.33
2022-08-23T10:31:20.910Z,1.50
2022-08-23T10:34:21.628Z,1.20
2022-08-23T10:37:13.931Z,1.20
2022-08-23T10:39:52.903Z,1.30
2022-08-23T10:42:31.307Z,0.87
2022-08-23T10:45:13.027Z,6.73
2022-08-23T10:48:16.050Z,7.32
2022-08-23T10:50:55.859Z,0.93
2022-08-23T10:53:30.495Z,4.80
2022-08-23T10:56:06.043Z,2.03
2022-08-23T10:59:01.091Z,1.00
2022-08-23T11:01:46.687Z,1.10
2022-08-23T11:04:35.494Z,0.88
2022-08-23T11:07:25.901Z,0.80
2022-08-23T11:10:01.113Z,0.85
2022-08-23T11:12:31.862Z,1.27
2022-08-23T11:15:07.880Z,0.90
2022-08-23T11:17:49.789Z,1.08
2022-08-23T11:20:50.567Z,1.20
2022-08-23T11:23:36.218Z,0.90
2022-08-23T11:26:07.219Z,0.75
2022-08-23T11:28:43.795Z,0.60
2022-08-23T11:31:20.726Z,1.30
2022-08-23T11:34:05.163Z,0.93
2022-08-23T11:36:33.822Z,0.98
2022-08-23T11:39:04.874Z,0.95
2022-08-23T11:41:33.326Z,1.02
2022-08-23T11:44:03.363Z,0.82
2022-08-23T11:46:34.967Z,0.80
2022-08-23T11:49:31.653Z,0.90
2022-08-23T11:52:25.736Z,0.90
2022-08-23T11:55:11.324Z,0.57
2022-08-23T11:58:15.597Z,0.50
2022-08-23T12:01:15.262Z,0.63
2022-08-23T12:03:51.572Z,0.70
2022-08-23T12:06:42.645Z,0.60
2022-08-23T12:09:21.037Z,1.00
2022-08-23T12:11:56.711Z,1.02
2022-08-23T12:14:32.643Z,0.93
2022-08-23T12:17:25.873Z,0.98
2022-08-23T12:19:59.730Z,0.80
2022-08-23T12:22:30.975Z,0.63
2022-08-23T12:25:01.387Z,0.93
2022-08-23T12:27:45.732Z,0.90
2022-08-23T12:30:33.896Z,0.82
2022-08-23T12:33:23.418Z,1.08
2022-08-23T12:35:54.043Z,1.02
2022-08-23T12:38:39.514Z,0.90
2022-08-23T12:41:19.228Z,1.67
2022-08-23T12:44:03.232Z,1.00
2022-08-23T12:46:45.603Z,0.80
2022-08-23T12:49:23.882Z,0.88
2022-08-23T12:51:53.833Z,0.77
2022-08-23T12:54:31.711Z,0.80
2022-08-23T12:57:00.146Z,0.90
2022-08-23T12:59:29.699Z,0.95
2022-08-23T13:01:56.872Z,0.60
2022-08-23T13:04:23.721Z,0.85
2022-08-23T13:06:56.577Z,1.00
2022-08-23T13:09:36.914Z,0.80
2022-08-23T13:12:06.349Z,0.77
2022-08-23T13:14:44.195Z,0.95
2022-08-23T13:17:25.835Z,0.80
2022-08-23T13:20:32.758Z,0.93
2022-08-23T13:23:24.044Z,1.30
2022-08-23T13:26:04.718Z,1.33
2022-08-23T13:28:34.560Z,1.00
2022-08-23T13:31:20.164Z,1.00
2022-08-23T13:34:08.266Z,0.70
2022-08-23T13:36:58.510Z,0.88
2022-08-23T13:39:48.589Z,0.80
2022-08-23T13:42:42.928Z,0.90
2022-08-23T13:46:10.402Z,0.80
2022-08-23T13:48:45.265Z,0.90
2022-08-23T13:51:27.484Z,1.25
2022-08-23T13:53:56.621Z,0.52
2022-08-23T13:56:24.047Z,0.90
2022-08-23T13:59:00.732Z,1.15
2022-08-23T14:01:29.200Z,1.27
2022-08-23T14:03:58.271Z,1.20
2022-08-23T14:06:38.688Z,1.10
2022-08-23T14:09:08.263Z,1.00
2022-08-23T14:11:35.344Z,1.23
2022-08-23T14:14:02.464Z,1.20
2022-08-23T14:16:35.264Z,0.75
2022-08-23T14:21:54.422Z,0.70
2022-08-23T14:24:21.550Z,0.60
2022-08-23T14:26:50.218Z,0.75
2022-08-23T14:29:22.280Z,0.50
2022-08-23T14:31:50.944Z,0.65
2022-08-23T14:34:18.065Z,0.80
2022-08-23T14:39:32.028Z,1.30
2022-08-23T14:41:58.947Z,0.70
2022-08-23T14:44:30.242Z,0.73
2022-08-23T14:47:00.160Z,0.95
2022-08-23T14:49:27.207Z,0.80
2022-08-23T14:51:54.486Z,0.80
2022-08-23T14:54:24.781Z,1.20
2022-08-23T14:56:51.982Z,0.98
2022-08-23T14:59:18.797Z,0.88
2022-08-23T15:01:48.587Z,0.68
2022-08-23T15:04:20.790Z,0.90
2022-08-23T15:07:13.896Z,0.95
2022-08-23T15:09:35.040Z,0.98
2022-08-23T15:14:49.446Z,0.90
2022-08-23T15:17:16.535Z,0.60
2022-08-23T15:19:43.428Z,1.08
2022-08-23T15:22:18.669Z,0.82
2022-08-23T15:24:49.744Z,0.63
2022-08-23T15:27:18.606Z,0.73
2022-08-23T15:29:45.843Z,0.82
2022-08-23T15:32:13.043Z,0.73
2022-08-23T15:34:45.625Z,0.57
2022-08-23T15:37:14.279Z,1.05
2022-08-23T15:39:42.371Z,0.60
2022-08-23T15:42:09.580Z,0.70
2022-08-23T15:44:36.636Z,0.93
2022-08-23T15:47:06.383Z,0.73
2022-08-23T15:49:36.512Z,1.20
2022-08-23T15:52:04.520Z,0.90
2022-08-23T15:54:31.908Z,0.63
2022-08-23T15:56:58.894Z,0.73
2022-08-23T15:59:26.208Z,0.98
2022-08-23T16:01:53.155Z,1.13
2022-08-23T16:04:20.166Z,0.90
2022-08-23T16:06:47.839Z,0.95
2022-08-23T16:09:21.692Z,0.98
2022-08-23T16:11:49.502Z,1.00
2022-08-23T16:14:16.717Z,0.98
2022-08-23T16:16:46.596Z,0.95
2022-08-23T16:19:14.353Z,1.20
2022-08-23T16:21:44.427Z,0.98
2022-08-23T16:24:11.545Z,1.25
2022-08-23T16:26:41.815Z,1.23
2022-08-23T16:29:10.993Z,1.00
2022-08-23T16:31:39.824Z,1.10
2022-08-23T16:34:09.834Z,1.27
2022-08-23T16:36:38.283Z,1.08
2022-08-23T16:39:05.966Z,0.98
2022-08-23T16:41:32.867Z,1.20
2022-08-23T16:44:00.230Z,1.33
2022-08-23T16:46:28.904Z,1.40
2022-08-23T16:48:55.832Z,0.93
2022-08-23T16:51:23.389Z,1.50
2022-08-23T16:54:01.477Z,1.00
2022-08-23T16:56:34.105Z,1.30
2022-08-23T16:59:02.181Z,1.45
2022-08-23T17:01:29.927Z,1.30
2022-08-23T17:03:56.846Z,1.30
2022-08-23T17:06:23.686Z,1.20
2022-08-23T17:08:50.488Z,1.38
2022-08-23T17:11:19.362Z,1.50
2022-08-23T17:13:46.736Z,1.60
2022-08-23T17:16:13.732Z,1.50
2022-08-23T17:18:40.971Z,1.40
2022-08-23T17:21:09.178Z,1.70
2022-08-23T17:23:40.408Z,1.63
2022-08-23T17:26:08.586Z,1.67
2022-08-23T17:28:35.652Z,1.35
2022-08-23T17:31:03.885Z,1.60
2022-08-23T17:33:30.756Z,1.52
2022-08-23T17:35:57.632Z,1.45
2022-08-23T17:38:24.628Z,1.60
2022-08-23T17:40:51.494Z,1.17
2022-08-23T17:43:18.488Z,1.30
2022-08-23T17:45:49.585Z,1.40
2022-08-23T17:48:18.454Z,1.65
2022-08-23T17:50:46.577Z,1.58
2022-08-23T17:53:15.096Z,1.40
2022-08-23T17:55:42.382Z,1.60
2022-08-23T17:58:10.495Z,1.55
2022-08-23T18:00:39.203Z,1.60
2022-08-23T18:03:06.897Z,1.63
2022-08-23T18:05:34.792Z,1.70
2022-08-23T18:08:02.137Z,1.30
2022-08-23T18:10:30.108Z,1.75
2022-08-23T18:12:58.542Z,1.50
2022-08-23T18:15:45.733Z,1.30
2022-08-23T18:18:26.177Z,1.23
2022-08-23T18:21:23.680Z,1.55
2022-08-23T18:24:06.758Z,1.88
2022-08-23T18:27:09.123Z,1.63
2022-08-23T18:29:51.677Z,1.60
2022-08-23T18:32:37.946Z,1.80
2022-08-23T18:35:19.331Z,1.90
2022-08-23T18:37:57.317Z,1.48
2022-08-23T18:40:47.499Z,1.73
2022-08-23T18:43:39.380Z,1.33
2022-08-23T18:46:08.520Z,1.58
2022-08-23T18:48:36.251Z,1.50
2022-08-23T18:51:06.429Z,1.40
2022-08-23T18:53:44.114Z,1.40
2022-08-23T18:56:11.052Z,1.90
2022-08-23T18:58:38.006Z,1.90
2022-08-23T19:01:30.544Z,1.70
2022-08-23T19:04:06.964Z,1.55
2022-08-23T19:06:38.266Z,1.88
2022-08-23T19:09:12.821Z,1.95
2022-08-23T19:12:01.125Z,1.75
2022-08-23T19:14:46.847Z,1.88
2022-08-23T19:17:27.593Z,2.00
2022-08-23T19:20:12.559Z,1.58
2022-08-23T19:22:58.897Z,1.52
2022-08-23T19:25:39.975Z,1.77
2022-08-23T19:28:22.374Z,1.77
2022-08-23T19:31:02.014Z,1.88
2022-08-23T19:33:40.099Z,1.83
2022-08-23T19:36:35.629Z,2.13
2022-08-23T19:39:16.377Z,1.80
2022-08-23T19:41:54.406Z,1.90
2022-08-23T19:44:34.238Z,1.77
2022-08-23T19:47:19.563Z,1.80
2022-08-23T19:50:06.965Z,1.80
2022-08-23T19:52:48.019Z,1.55
2022-08-23T19:55:31.097Z,1.60
2022-08-23T19:58:10.192Z,1.70
2022-08-23T20:00:54.013Z,1.90
2022-08-23T20:03:20.941Z,1.67
2022-08-23T20:06:04.814Z,1.60
2022-08-23T20:08:42.227Z,1.47
2022-08-23T20:11:28.222Z,1.40
2022-08-23T20:14:13.042Z,1.50
2022-08-23T20:16:55.444Z,1.60
2022-08-23T20:19:44.246Z,1.60
2022-08-23T20:22:52.026Z,1.93
2022-08-23T20:25:45.150Z,1.77
2022-08-23T20:28:39.326Z,2.00
2022-08-23T20:31:37.559Z,1.50
2022-08-23T20:34:12.313Z,1.60
2022-08-23T20:36:55.955Z,1.73
2022-08-23T20:39:31.342Z,1.70
2022-08-23T20:42:07.977Z,1.67
2022-08-23T20:44:39.185Z,1.47
2022-08-23T20:47:09.745Z,1.67
2022-08-23T20:49:40.601Z,1.70
2022-08-23T20:52:08.304Z,1.73
2022-08-23T20:54:43.358Z,2.10
2022-08-23T20:57:10.374Z,1.40
2022-08-23T20:59:39.889Z,1.70
2022-08-23T21:02:24.203Z,1.43
2022-08-23T21:05:00.782Z,1.77
2022-08-23T21:07:51.505Z,1.57
2022-08-23T21:10:27.051Z,1.50
2022-08-23T21:13:22.211Z,1.47
2022-08-23T21:16:04.749Z,1.30
2022-08-23T21:18:39.885Z,1.30
2022-08-23T21:21:31.079Z,1.60
2022-08-23T21:24:07.027Z,1.70
2022-08-23T21:26:50.191Z,1.60
2022-08-23T21:29:38.518Z,1.57
2022-08-23T21:32:14.798Z,1.70
2022-08-23T21:34:56.391Z,1.50
2022-08-23T21:37:38.082Z,1.83
2022-08-23T21:40:05.541Z,1.97
2022-08-23T21:42:37.369Z,2.20
2022-08-23T21:45:06.827Z,2.10
2022-08-23T21:47:33.683Z,2.47
2022-08-23T21:50:00.475Z,2.50
2022-08-23T21:52:27.289Z,2.83
2022-08-23T21:54:54.097Z,2.50
2022-08-23T21:57:20.949Z,2.73
2022-08-23T21:59:47.863Z,2.60
2022-08-23T22:02:14.835Z,2.83
2022-08-23T22:04:41.740Z,2.73
2022-08-23T22:07:08.602Z,2.50
2022-08-23T22:09:35.460Z,3.17
2022-08-23T22:12:02.415Z,3.50
2022-08-23T22:14:31.700Z,3.30
2022-08-23T22:16:59.299Z,3.17
2022-08-23T22:19:26.460Z,3.80
2022-08-23T22:21:53.385Z,3.27
2022-08-23T22:24:25.284Z,3.23
2022-08-23T22:26:52.941Z,3.50
2022-08-23T22:29:19.703Z,3.00
2022-08-23T22:31:48.107Z,3.27
2022-08-23T22:34:15.066Z,3.57
2022-08-23T22:36:42.118Z,3.63
2022-08-23T22:39:09.161Z,3.40
2022-08-23T22:41:36.915Z,3.93
2022-08-23T22:44:04.662Z,3.20
2022-08-23T22:46:33.759Z,3.67
2022-08-23T22:49:01.204Z,3.50
2022-08-23T22:51:33.624Z,3.50
2022-08-23T22:54:04.238Z,3.57
2022-08-23T22:56:40.772Z,2.90
2022-08-23T22:59:08.872Z,3.53
2022-08-23T23:01:39.939Z,3.60
2022-08-23T23:04:10.514Z,3.33
2022-08-23T23:06:38.220Z,3.43
2022-08-23T23:09:07.975Z,3.63
2022-08-23T23:11:35.871Z,3.37
2022-08-23T23:14:04.229Z,3.60
2022-08-23T23:16:31.430Z,3.60
2022-08-23T23:19:18.147Z,3.70
2022-08-23T23:21:56.932Z,2.97
2022-08-23T23:24:29.273Z,3.00
2022-08-23T23:26:58.853Z,3.00
2022-08-23T23:29:26.967Z,3.37
2022-08-23T23:31:54.013Z,3.67
2022-08-23T23:34:21.080Z,3.43
2022-08-23T23:36:47.946Z,3.43
2022-08-23T23:39:15.254Z,3.30
2022-08-23T23:41:42.749Z,3.10
2022-08-23T23:44:09.928Z,3.73
2022-08-23T23:46:36.743Z,3.67
2022-08-23T23:49:05.507Z,3.20
2022-08-23T23:51:33.099Z,3.20
2022-08-23T23:54:01.322Z,2.83
2022-08-23T23:56:30.116Z,3.27
2022-08-23T23:58:58.636Z,3.20
